createdAt,value
2022-09-26T00:00:09.078Z,9.30
2022-09-26T00:03:53.128Z,9.10
2022-09-26T00:07:37.202Z,9.00
2022-09-26T00:11:21.351Z,9.00
2022-09-26T00:15:03.810Z,8.80
2022-09-26T00:18:50.059Z,8.80
2022-09-26T00:22:32.481Z,8.70
2022-09-26T00:26:18.694Z,8.60
2022-09-26T00:30:01.284Z,8.50
2022-09-26T00:33:44.721Z,8.50
2022-09-26T00:37:27.181Z,8.40
2022-09-26T00:41:10.318Z,8.40
2022-09-26T00:44:55.292Z,8.30
2022-09-26T00:48:40.350Z,8.20
2022-09-26T00:52:26.201Z,8.20
2022-09-26T00:56:11.740Z,8.20
2022-09-26T00:59:59.783Z,8.10
2022-09-26T01:03:44.162Z,8.10
2022-09-26T01:07:29.052Z,8.10
2022-09-26T01:11:17.118Z,8.20
2022-09-26T01:15:01.312Z,8.20
2022-09-26T01:18:45.256Z,8.30
2022-09-26T01:23:02.238Z,8.30
2022-09-26T01:27:15.418Z,8.40
2022-09-26T01:31:05.800Z,8.50
2022-09-26T01:34:56.353Z,8.60
2022-09-26T01:38:52.051Z,8.70
2022-09-26T01:42:42.313Z,8.90
2022-09-26T01:46:35.225Z,9.00
2022-09-26T01:50:24.694Z,9.00
2022-09-26T01:54:12.463Z,9.00
2022-09-26T01:57:59.131Z,9.00
2022-09-26T02:01:45.630Z,9.00
2022-09-26T02:05:33.625Z,9.10
2022-09-26T02:09:19.068Z,9.10
2022-09-26T02:13:08.169Z,9.10
2022-09-26T02:16:53.782Z,9.10
2022-09-26T02:20:39.109Z,9.10
2022-09-26T02:24:23.187Z,9.20
2022-09-26T02:28:06.242Z,9.10
2022-09-26T02:31:56.151Z,9.10
2022-09-26T02:35:58.877Z,9.10
2022-09-26T02:39:42.811Z,9.20
2022-09-26T02:43:37.726Z,9.20
2022-09-26T02:47:55.019Z,9.20
2022-09-26T02:51:54.313Z,9.20
2022-09-26T02:55:46.981Z,9.20
2022-09-26T02:59:36.238Z,9.20
2022-09-26T03:03:24.439Z,9.20
2022-09-26T03:07:11.046Z,9.10
2022-09-26T03:10:54.810Z,9.10
2022-09-26T03:14:39.760Z,9.10
2022-09-26T03:18:28.467Z,9.00
2022-09-26T03:22:11.843Z,8.90
2022-09-26T03:26:02.811Z,8.90
2022-09-26T03:29:45.777Z,8.90
2022-09-26T03:33:29.859Z,8.90
2022-09-26T03:37:12.379Z,9.00
2022-09-26T03:40:55.350Z,9.00
2022-09-26T03:44:37.894Z,9.00
2022-09-26T03:48:20.627Z,9.00
2022-09-26T03:52:04.699Z,9.00
2022-09-26T03:55:47.494Z,9.00
2022-09-26T03:59:30.168Z,9.00
2022-09-26T04:03:12.996Z,8.90
2022-09-26T04:06:55.321Z,8.80
2022-09-26T04:10:39.861Z,8.70
2022-09-26T04:14:22.642Z,8.60
2022-09-26T04:18:05.212Z,8.50
2022-09-26T04:21:48.531Z,8.40
2022-09-26T04:25:31.624Z,8.30
2022-09-26T04:29:16.072Z,8.20
2022-09-26T04:32:58.617Z,8.10
2022-09-26T04:36:41.607Z,8.00
2022-09-26T04:40:24.359Z,8.10
2022-09-26T04:44:07.266Z,8.00
2022-09-26T04:47:51.358Z,8.00
2022-09-26T04:51:34.116Z,7.90
2022-09-26T04:55:16.790Z,8.00
2022-09-26T04:59:00.059Z,8.00
2022-09-26T05:02:42.819Z,8.00
2022-09-26T05:06:27.063Z,7.90
2022-09-26T05:10:11.073Z,7.80
2022-09-26T05:13:54.191Z,7.70
2022-09-26T05:17:37.667Z,7.70
2022-09-26T05:21:20.515Z,7.60
2022-09-26T05:25:22.277Z,7.50
2022-09-26T05:29:08.553Z,7.50
2022-09-26T05:32:51.602Z,7.50
2022-09-26T05:36:34.767Z,7.50
2022-09-26T05:40:36.207Z,7.50
2022-09-26T05:44:20.040Z,7.50
2022-09-26T05:48:03.007Z,7.50
2022-09-26T05:51:46.412Z,7.50
2022-09-26T05:55:31.020Z,7.50
2022-09-26T05:59:13.573Z,7.60
2022-09-26T06:02:57.229Z,7.60
2022-09-26T06:06:39.805Z,7.70
2022-09-26T06:10:23.484Z,7.80
2022-09-26T06:14:08.225Z,8.00
2022-09-26T06:17:58.754Z,8.20
2022-09-26T06:21:44.067Z,8.50
2022-09-26T06:25:27.171Z,8.80
2022-09-26T06:29:12.887Z,9.20
2022-09-26T06:32:55.938Z,9.40
2022-09-26T06:36:39.765Z,9.50
2022-09-26T06:40:22.505Z,9.70
2022-09-26T06:44:05.355Z,9.80
2022-09-26T06:47:49.623Z,9.90
2022-09-26T06:51:32.927Z,10.20
2022-09-26T06:55:16.141Z,10.40
2022-09-26T06:58:59.029Z,10.40
2022-09-26T07:02:53.032Z,10.30
2022-09-26T07:06:35.269Z,10.30
2022-09-26T07:10:19.613Z,10.60
2022-09-26T07:14:02.589Z,10.70
2022-09-26T07:17:47.985Z,10.70
2022-09-26T07:21:31.893Z,10.80
2022-09-26T07:25:15.207Z,11.00
2022-09-26T07:28:57.558Z,11.10
2022-09-26T07:32:46.138Z,11.40
2022-09-26T07:36:28.585Z,11.70
2022-09-26T07:40:13.027Z,12.00
2022-09-26T07:48:15.134Z,12.10
2022-09-26T07:52:00.278Z,12.00
2022-09-26T07:56:04.116Z,11.80
2022-09-26T07:59:46.366Z,11.70
2022-09-26T08:03:29.623Z,11.70
2022-09-26T08:07:12.532Z,11.50
2022-09-26T08:11:02.824Z,11.30
2022-09-26T08:14:49.404Z,11.40
2022-09-26T08:18:32.442Z,11.50
2022-09-26T08:22:15.348Z,11.70
2022-09-26T08:26:05.173Z,11.90
2022-09-26T08:29:48.717Z,12.00
2022-09-26T08:33:32.472Z,12.20
2022-09-26T08:37:16.016Z,12.30
2022-09-26T08:41:11.596Z,12.50
2022-09-26T08:45:27.241Z,12.70
2022-09-26T08:49:39.465Z,12.70
2022-09-26T08:53:25.304Z,12.70
2022-09-26T08:57:23.080Z,12.80
2022-09-26T09:01:13.419Z,13.00
2022-09-26T09:05:02.447Z,13.10
2022-09-26T09:08:53.169Z,13.20
2022-09-26T09:12:53.679Z,13.50
2022-09-26T09:16:51.565Z,13.60
2022-09-26T09:20:50.333Z,13.70
2022-09-26T09:24:45.873Z,14.00
2022-09-26T09:28:41.389Z,14.30
2022-09-26T09:32:31.677Z,14.60
2022-09-26T09:36:18.140Z,14.90
2022-09-26T09:40:01.499Z,14.60
2022-09-26T09:44:03.162Z,14.20
2022-09-26T09:47:47.371Z,14.50
2022-09-26T09:51:39.969Z,14.70
2022-09-26T09:55:43.521Z,15.30
2022-09-26T09:59:56.997Z,15.10
2022-09-26T10:03:46.891Z,14.60
2022-09-26T10:07:30.167Z,14.30
2022-09-26T10:11:25.894Z,13.70
2022-09-26T10:15:20.573Z,13.60
2022-09-26T10:19:07.828Z,13.70
2022-09-26T10:22:53.611Z,13.90
2022-09-26T10:26:39.517Z,14.40
2022-09-26T10:30:28.141Z,14.90
2022-09-26T10:34:25.537Z,14.90
2022-09-26T10:38:19.527Z,14.60
2022-09-26T10:42:04.087Z,14.40
2022-09-26T10:45:48.884Z,14.30
2022-09-26T10:49:37.303Z,14.30
2022-09-26T10:53:23.155Z,14.30
2022-09-26T10:57:09.504Z,14.30
2022-09-26T11:00:57.314Z,14.50
2022-09-26T11:05:04.963Z,14.70
2022-09-26T11:08:52.969Z,15.60
2022-09-26T11:12:39.436Z,15.90
2022-09-26T11:16:25.154Z,15.60
2022-09-26T11:20:10.657Z,15.80
2022-09-26T11:24:03.056Z,15.90
2022-09-26T11:27:49.468Z,16.20
2022-09-26T11:31:43.987Z,16.60
2022-09-26T11:35:44.033Z,17.00
2022-09-26T11:39:51.569Z,16.70
2022-09-26T11:43:50.542Z,16.70
2022-09-26T11:48:11.201Z,16.30
2022-09-26T11:52:13.253Z,16.70
2022-09-26T11:56:15.870Z,16.80
2022-09-26T12:00:13.006Z,16.20
2022-09-26T12:04:15.778Z,16.00
2022-09-26T12:08:15.723Z,16.30
2022-09-26T12:12:12.768Z,16.60
2022-09-26T12:16:01.872Z,16.40
2022-09-26T12:19:56.557Z,15.90
2022-09-26T12:23:48.648Z,16.40
2022-09-26T12:27:38.674Z,16.80
2022-09-26T12:31:33.576Z,16.50
2022-09-26T12:35:33.606Z,16.40
2022-09-26T12:39:42.993Z,16.30
2022-09-26T12:43:47.713Z,16.50
2022-09-26T12:47:55.608Z,16.50
2022-09-26T12:51:45.019Z,16.20
2022-09-26T12:55:37.353Z,16.30
2022-09-26T13:00:00.822Z,16.00
2022-09-26T13:04:10.400Z,16.00
2022-09-26T13:08:05.066Z,16.10
2022-09-26T13:11:58.322Z,15.90
2022-09-26T13:15:52.043Z,15.80
2022-09-26T13:19:38.661Z,16.00
2022-09-26T13:23:31.715Z,15.60
2022-09-26T13:27:20.191Z,15.70
2022-09-26T13:31:06.932Z,15.50
2022-09-26T13:34:56.904Z,15.30
2022-09-26T13:38:55.822Z,15.10
2022-09-26T13:42:46.328Z,14.60
2022-09-26T13:46:40.159Z,14.50
2022-09-26T13:50:28.374Z,14.20
2022-09-26T13:54:20.293Z,13.80
2022-09-26T13:58:18.119Z,13.90
2022-09-26T14:02:18.225Z,14.20
2022-09-26T14:06:12.662Z,14.60
2022-09-26T14:10:08.764Z,14.60
2022-09-26T14:14:24.090Z,14.50
2022-09-26T14:18:29.576Z,14.70
2022-09-26T14:22:34.601Z,14.40
2022-09-26T14:26:30.273Z,14.50
2022-09-26T14:30:30.076Z,14.50
2022-09-26T14:34:20.179Z,14.40
2022-09-26T14:38:05.573Z,14.40
2022-09-26T14:41:49.780Z,14.50
2022-09-26T14:45:47.432Z,14.30
2022-09-26T14:49:30.269Z,14.30
2022-09-26T14:53:23.403Z,14.20
2022-09-26T14:57:20.894Z,14.30
2022-09-26T15:01:07.318Z,14.10
2022-09-26T15:05:00.143Z,13.90
2022-09-26T15:08:42.908Z,13.90
2022-09-26T15:12:35.107Z,14.10
2022-09-26T15:16:25.625Z,14.40
2022-09-26T15:20:14.678Z,14.30
2022-09-26T15:23:58.493Z,13.90
2022-09-26T15:27:46.287Z,13.60
2022-09-26T15:31:37.747Z,13.60
2022-09-26T15:35:20.761Z,13.70
2022-09-26T15:39:27.017Z,13.80
2022-09-26T15:43:16.003Z,13.90
2022-09-26T15:46:59.799Z,13.80
2022-09-26T15:50:46.598Z,13.90
2022-09-26T15:54:32.936Z,14.10
2022-09-26T15:58:23.416Z,14.20
2022-09-26T16:02:22.517Z,14.30
2022-09-26T16:06:11.633Z,14.30
2022-09-26T16:09:56.029Z,14.10
2022-09-26T16:13:46.246Z,14.00
2022-09-26T16:17:33.021Z,13.80
2022-09-26T16:21:17.578Z,13.50
2022-09-26T16:25:24.235Z,13.50
2022-09-26T16:29:09.330Z,13.30
2022-09-26T16:32:52.742Z,13.00
2022-09-26T16:36:36.001Z,12.80
2022-09-26T16:40:19.181Z,12.70
2022-09-26T16:44:08.646Z,12.60
2022-09-26T16:47:52.994Z,12.50
2022-09-26T16:51:39.855Z,12.40
2022-09-26T16:55:24.235Z,12.30
2022-09-26T16:59:16.250Z,12.20
2022-09-26T17:03:00.509Z,12.20
2022-09-26T17:06:43.401Z,12.10
2022-09-26T17:10:27.300Z,12.10
2022-09-26T17:14:15.899Z,12.00
2022-09-26T17:18:01.348Z,12.00
2022-09-26T17:21:44.225Z,12.00
2022-09-26T17:25:27.717Z,12.00
2022-09-26T17:29:18.639Z,12.00
2022-09-26T17:33:04.430Z,11.90
2022-09-26T17:36:51.044Z,11.90
2022-09-26T17:40:34.574Z,11.90
2022-09-26T17:44:19.697Z,11.90
2022-09-26T17:48:08.500Z,11.90
2022-09-26T17:51:56.227Z,11.90
2022-09-26T17:55:40.406Z,11.90
2022-09-26T17:59:25.739Z,11.80
2022-09-26T18:03:19.110Z,11.70
2022-09-26T18:07:05.345Z,11.70
2022-09-26T18:10:54.046Z,11.60
2022-09-26T18:14:38.563Z,11.50
2022-09-26T18:18:24.527Z,11.50
2022-09-26T18:22:12.027Z,11.50
2022-09-26T18:25:58.067Z,11.50
2022-09-26T18:29:46.513Z,11.50
2022-09-26T18:33:35.758Z,11.60
2022-09-26T18:37:20.365Z,11.60
2022-09-26T18:41:06.928Z,11.60
2022-09-26T18:44:51.107Z,11.70
2022-09-26T18:48:37.178Z,11.70
2022-09-26T18:52:20.360Z,11.80
2022-09-26T18:56:20.525Z,11.70
2022-09-26T19:00:03.131Z,11.70
2022-09-26T19:03:49.247Z,11.70
2022-09-26T19:07:33.487Z,11.70
2022-09-26T19:11:18.394Z,11.70
2022-09-26T19:15:01.369Z,11.70
2022-09-26T19:18:44.361Z,11.70
2022-09-26T19:22:28.389Z,11.70
2022-09-26T19:26:20.378Z,11.70
2022-09-26T19:30:05.567Z,11.70
2022-09-26T19:33:49.986Z,11.70
2022-09-26T19:37:34.146Z,11.70
2022-09-26T19:41:16.864Z,11.70
2022-09-26T19:44:59.498Z,11.70
2022-09-26T19:48:43.258Z,11.60
2022-09-26T19:52:27.830Z,11.60
2022-09-26T19:56:12.430Z,11.60
2022-09-26T19:59:55.088Z,11.60
2022-09-26T20:03:39.992Z,11.50
2022-09-26T20:07:22.707Z,11.50
2022-09-26T20:11:07.093Z,11.50
2022-09-26T20:14:51.316Z,11.50
2022-09-26T20:18:34.274Z,11.40
2022-09-26T20:22:20.172Z,11.30
2022-09-26T20:26:03.368Z,11.20
2022-09-26T20:30:04.832Z,11.20
2022-09-26T20:33:49.302Z,11.20
2022-09-26T20:37:36.403Z,11.20
2022-09-26T20:41:23.968Z,11.20
2022-09-26T20:45:08.210Z,11.10
2022-09-26T20:48:52.872Z,11.10
2022-09-26T20:52:35.578Z,11.00
2022-09-26T20:56:21.855Z,11.10
2022-09-26T21:00:09.409Z,11.00
2022-09-26T21:03:56.638Z,11.00
2022-09-26T21:07:41.816Z,10.90
2022-09-26T21:11:24.622Z,10.80
2022-09-26T21:15:11.276Z,10.80
2022-09-26T21:18:55.502Z,10.70
2022-09-26T21:22:38.813Z,10.60
2022-09-26T21:26:22.907Z,10.50
2022-09-26T21:30:05.767Z,10.40
2022-09-26T21:33:48.815Z,10.40
2022-09-26T21:37:33.395Z,10.30
2022-09-26T21:41:16.197Z,10.20
2022-09-26T21:45:03.397Z,10.10
2022-09-26T21:48:47.826Z,10.00
2022-09-26T21:52:37.428Z,10.00
2022-09-26T21:56:23.194Z,9.90
2022-09-26T22:00:09.508Z,9.90
2022-09-26T22:03:52.977Z,9.80
2022-09-26T22:07:38.525Z,9.70
2022-09-26T22:11:21.088Z,9.70
2022-09-26T22:15:06.978Z,9.60
2022-09-26T22:18:49.796Z,9.60
2022-09-26T22:22:32.616Z,9.50
2022-09-26T22:26:16.440Z,9.50
2022-09-26T22:29:59.198Z,9.40
2022-09-26T22:33:42.048Z,9.30
2022-09-26T22:52:40.817Z,9.00
2022-09-26T22:56:24.077Z,8.90
2022-09-26T23:00:08.569Z,9.00
2022-09-26T23:03:51.885Z,9.10
2022-09-26T23:07:34.645Z,9.20
2022-09-26T23:11:19.308Z,9.20
2022-09-26T23:15:01.724Z,9.30
2022-09-26T23:18:45.513Z,9.30
2022-09-26T23:22:30.062Z,9.30
2022-09-26T23:26:16.357Z,9.30
2022-09-26T23:30:00.416Z,9.30
2022-09-26T23:33:43.654Z,9.30
2022-09-26T23:37:26.396Z,9.30
2022-09-26T23:41:10.901Z,9.30
2022-09-26T23:44:53.594Z,9.30
2022-09-26T23:48:37.888Z,9.30
2022-09-26T23:52:20.388Z,9.30
2022-09-26T23:56:05.023Z,9.30
2022-09-26T23:59:47.849Z,9.40
